sensor_id;sensor_type;location;lat;lon;timestamp;pressure;altitude;pressure_sealevel;temperature;humidity
34177;BME280;20450;49.074;9.158;2023-04-25T00:01:30;99164.56;;;10.81;71.60
34177;BME280;20450;49.074;9.158;2023-04-25T00:03:57;99165.72;;;10.37;73.19
34177;BME280;20450;49.074;9.158;2023-04-25T00:06:26;99156.03;;;10.30;73.58
34177;BME280;20450;49.074;9.158;2023-04-25T00:08:53;99158.44;;;10.20;74.00
34177;BME280;20450;49.074;9.158;2023-04-25T00:11:20;99160.41;;;10.31;73.67
34177;BME280;20450;49.074;9.158;2023-04-25T00:13:47;99166.94;;;10.41;73.71
34177;BME280;20450;49.074;9.158;2023-04-25T00:16:15;99162.94;;;10.44;72.47
34177;BME280;20450;49.074;9.158;2023-04-25T00:18:42;99159.13;;;10.51;72.77
34177;BME280;20450;49.074;9.158;2023-04-25T00:21:10;99162.44;;;10.53;72.09
34177;BME280;20450;49.074;9.158;2023-04-25T00:23:38;99156.88;;;10.48;72.46
34177;BME280;20450;49.074;9.158;2023-04-25T00:26:33;99157.84;;;10.54;72.97
34177;BME280;20450;49.074;9.158;2023-04-25T00:29:04;99159.72;;;10.53;72.28
34177;BME280;20450;49.074;9.158;2023-04-25T00:31:44;99152.00;;;10.39;72.62
34177;BME280;20450;49.074;9.158;2023-04-25T00:34:12;99150.72;;;10.23;72.91
34177;BME280;20450;49.074;9.158;2023-04-25T00:36:38;99147.88;;;10.18;72.76
34177;BME280;20450;49.074;9.158;2023-04-25T00:39:07;99148.94;;;10.17;72.79
34177;BME280;20450;49.074;9.158;2023-04-25T00:41:34;99144.88;;;10.08;73.63
34177;BME280;20450;49.074;9.158;2023-04-25T00:44:03;99142.69;;;10.17;73.45
34177;BME280;20450;49.074;9.158;2023-04-25T00:46:31;99144.06;;;10.26;72.68
34177;BME280;20450;49.074;9.158;2023-04-25T00:48:58;99142.47;;;10.18;72.75
34177;BME280;20450;49.074;9.158;2023-04-25T00:51:25;99134.81;;;10.15;73.06
34177;BME280;20450;49.074;9.158;2023-04-25T00:53:53;99136.09;;;10.13;72.57
34177;BME280;20450;49.074;9.158;2023-04-25T00:56:22;99136.03;;;10.19;72.59
34177;BME280;20450;49.074;9.158;2023-04-25T00:58:51;99133.84;;;10.10;71.80
34177;BME280;20450;49.074;9.158;2023-04-25T01:01:20;99139.03;;;10.11;71.90
34177;BME280;20450;49.074;9.158;2023-04-25T01:03:47;99132.78;;;10.11;72.02
34177;BME280;20450;49.074;9.158;2023-04-25T01:06:16;99133.84;;;10.10;71.59
34177;BME280;20450;49.074;9.158;2023-04-25T01:08:44;99135.66;;;9.91;71.95
34177;BME280;20450;49.074;9.158;2023-04-25T01:11:11;99144.97;;;9.95;72.40
34177;BME280;20450;49.074;9.158;2023-04-25T01:13:39;99130.59;;;10.01;71.89
34177;BME280;20450;49.074;9.158;2023-04-25T01:16:07;99132.00;;;10.03;72.38
34177;BME280;20450;49.074;9.158;2023-04-25T01:18:36;99130.44;;;9.96;71.94
34177;BME280;20450;49.074;9.158;2023-04-25T01:21:09;99130.72;;;10.06;71.89
34177;BME280;20450;49.074;9.158;2023-04-25T01:23:38;99127.84;;;10.08;70.86
34177;BME280;20450;49.074;9.158;2023-04-25T01:26:08;99128.00;;;10.13;71.13
34177;BME280;20450;49.074;9.158;2023-04-25T01:28:37;99123.13;;;10.21;70.36
34177;BME280;20450;49.074;9.158;2023-04-25T01:31:05;99126.81;;;10.27;70.16
34177;BME280;20450;49.074;9.158;2023-04-25T01:33:32;99123.63;;;10.30;69.79
34177;BME280;20450;49.074;9.158;2023-04-25T01:36:00;99126.50;;;10.35;69.93
34177;BME280;20450;49.074;9.158;2023-04-25T01:38:28;99127.13;;;10.37;69.42
34177;BME280;20450;49.074;9.158;2023-04-25T01:40:56;99127.47;;;10.40;69.38
34177;BME280;20450;49.074;9.158;2023-04-25T01:43:23;99116.81;;;10.45;68.88
34177;BME280;20450;49.074;9.158;2023-04-25T01:45:51;99126.72;;;10.51;68.77
34177;BME280;20450;49.074;9.158;2023-04-25T01:48:19;99125.66;;;10.52;68.63
34177;BME280;20450;49.074;9.158;2023-04-25T01:50:46;99122.59;;;10.49;68.87
34177;BME280;20450;49.074;9.158;2023-04-25T01:53:13;99118.63;;;10.51;68.73
34177;BME280;20450;49.074;9.158;2023-04-25T01:56:06;99123.19;;;10.51;68.69
34177;BME280;20450;49.074;9.158;2023-04-25T01:58:35;99115.09;;;10.51;68.81
34177;BME280;20450;49.074;9.158;2023-04-25T02:01:09;99111.19;;;10.47;69.47
34177;BME280;20450;49.074;9.158;2023-04-25T02:03:45;99112.59;;;10.49;69.25
34177;BME280;20450;49.074;9.158;2023-04-25T02:06:57;99106.63;;;10.47;69.39
34177;BME280;20450;49.074;9.158;2023-04-25T02:09:33;99116.81;;;10.45;69.24
34177;BME280;20450;49.074;9.158;2023-04-25T02:12:13;99109.69;;;10.33;69.82
34177;BME280;20450;49.074;9.158;2023-04-25T02:15:07;99108.22;;;10.37;69.81
34177;BME280;20450;49.074;9.158;2023-04-25T02:17:52;99114.88;;;10.34;70.13
34177;BME280;20450;49.074;9.158;2023-04-25T02:20:21;99118.78;;;10.20;70.28
34177;BME280;20450;49.074;9.158;2023-04-25T02:22:49;99108.91;;;10.14;71.13
34177;BME280;20450;49.074;9.158;2023-04-25T02:25:16;99115.72;;;10.17;70.79
34177;BME280;20450;49.074;9.158;2023-04-25T02:27:45;99111.97;;;10.18;70.42
34177;BME280;20450;49.074;9.158;2023-04-25T02:30:13;99113.13;;;10.03;70.81
34177;BME280;20450;49.074;9.158;2023-04-25T02:32:40;99111.78;;;9.94;72.13
34177;BME280;20450;49.074;9.158;2023-04-25T02:35:08;99104.97;;;9.92;72.03
34177;BME280;20450;49.074;9.158;2023-04-25T02:37:37;99106.88;;;9.85;71.89
34177;BME280;20450;49.074;9.158;2023-04-25T02:40:06;99109.66;;;9.78;72.60
34177;BME280;20450;49.074;9.158;2023-04-25T02:42:35;99107.81;;;9.79;73.04
34177;BME280;20450;49.074;9.158;2023-04-25T02:45:05;99109.06;;;9.76;73.37
34177;BME280;20450;49.074;9.158;2023-04-25T02:47:33;99110.19;;;9.87;72.88
34177;BME280;20450;49.074;9.158;2023-04-25T02:50:00;99104.06;;;9.98;72.55
34177;BME280;20450;49.074;9.158;2023-04-25T02:52:28;99107.31;;;10.07;72.20
34177;BME280;20450;49.074;9.158;2023-04-25T02:55:03;99099.97;;;10.14;72.15
34177;BME280;20450;49.074;9.158;2023-04-25T02:57:31;99100.56;;;10.16;72.25
34177;BME280;20450;49.074;9.158;2023-04-25T02:59:58;99098.81;;;10.03;72.67
34177;BME280;20450;49.074;9.158;2023-04-25T03:02:45;99095.66;;;10.06;72.46
34177;BME280;20450;49.074;9.158;2023-04-25T03:05:13;99089.25;;;10.07;72.67
34177;BME280;20450;49.074;9.158;2023-04-25T03:07:40;99084.22;;;10.11;72.42
34177;BME280;20450;49.074;9.158;2023-04-25T03:13:27;99087.31;;;10.14;71.68
34177;BME280;20450;49.074;9.158;2023-04-25T03:16:02;99087.91;;;10.16;71.92
34177;BME280;20450;49.074;9.158;2023-04-25T03:18:35;99089.81;;;9.91;72.16
34177;BME280;20450;49.074;9.158;2023-04-25T03:21:02;99095.75;;;9.99;72.62
34177;BME280;20450;49.074;9.158;2023-04-25T03:23:30;99101.91;;;10.07;71.41
34177;BME280;20450;49.074;9.158;2023-04-25T03:25:57;99096.47;;;10.13;71.85
34177;BME280;20450;49.074;9.158;2023-04-25T03:28:44;99096.00;;;10.16;71.35
34177;BME280;20450;49.074;9.158;2023-04-25T03:31:12;99099.06;;;10.20;70.93
34177;BME280;20450;49.074;9.158;2023-04-25T03:33:40;99094.66;;;10.25;71.18
34177;BME280;20450;49.074;9.158;2023-04-25T03:36:08;99089.84;;;10.27;71.99
34177;BME280;20450;49.074;9.158;2023-04-25T03:38:35;99093.38;;;10.28;72.12
34177;BME280;20450;49.074;9.158;2023-04-25T03:41:04;99094.66;;;10.25;71.87
34177;BME280;20450;49.074;9.158;2023-04-25T03:43:41;99093.22;;;10.23;72.32
34177;BME280;20450;49.074;9.158;2023-04-25T03:46:11;99088.94;;;10.15;72.22
34177;BME280;20450;49.074;9.158;2023-04-25T03:48:41;99095.41;;;10.14;72.20
34177;BME280;20450;49.074;9.158;2023-04-25T03:51:12;99093.75;;;10.13;72.63
34177;BME280;20450;49.074;9.158;2023-04-25T03:53:42;99089.84;;;10.09;72.64
34177;BME280;20450;49.074;9.158;2023-04-25T03:56:18;99097.56;;;10.06;73.07
34177;BME280;20450;49.074;9.158;2023-04-25T03:58:50;99102.56;;;10.02;73.28
34177;BME280;20450;49.074;9.158;2023-04-25T04:01:19;99106.75;;;9.98;73.34
34177;BME280;20450;49.074;9.158;2023-04-25T04:03:48;99102.56;;;10.02;73.07
34177;BME280;20450;49.074;9.158;2023-04-25T04:06:16;99104.66;;;10.00;72.88
34177;BME280;20450;49.074;9.158;2023-04-25T04:08:47;99103.63;;;10.01;73.15
34177;BME280;20450;49.074;9.158;2023-04-25T04:11:14;99100.75;;;9.96;72.92
34177;BME280;20450;49.074;9.158;2023-04-25T04:13:41;99101.94;;;10.00;73.49
34177;BME280;20450;49.074;9.158;2023-04-25T04:16:08;99100.09;;;10.00;72.94
34177;BME280;20450;49.074;9.158;2023-04-25T04:18:35;99099.41;;;10.05;72.48
34177;BME280;20450;49.074;9.158;2023-04-25T04:21:06;99102.41;;;9.97;73.11
34177;BME280;20450;49.074;9.158;2023-04-25T04:23:35;99102.50;;;9.90;73.28
34177;BME280;20450;49.074;9.158;2023-04-25T04:26:05;99106.59;;;9.93;73.32
34177;BME280;20450;49.074;9.158;2023-04-25T04:28:50;99110.34;;;9.92;73.26
34177;BME280;20450;49.074;9.158;2023-04-25T04:31:37;99114.06;;;9.91;73.11
34177;BME280;20450;49.074;9.158;2023-04-25T04:34:05;99118.59;;;9.97;73.20
34177;BME280;20450;49.074;9.158;2023-04-25T04:36:34;99116.19;;;9.89;73.86
34177;BME280;20450;49.074;9.158;2023-04-25T04:39:28;99119.69;;;9.89;73.65
34177;BME280;20450;49.074;9.158;2023-04-25T04:42:38;99118.06;;;9.88;74.18
34177;BME280;20450;49.074;9.158;2023-04-25T04:45:18;99110.19;;;9.87;73.85
34177;BME280;20450;49.074;9.158;2023-04-25T04:47:54;99116.66;;;9.86;73.97
34177;BME280;20450;49.074;9.158;2023-04-25T04:50:40;99108.78;;;9.84;73.88
34177;BME280;20450;49.074;9.158;2023-04-25T04:53:28;99127.66;;;9.84;73.87
34177;BME280;20450;49.074;9.158;2023-04-25T04:56:14;99139.41;;;9.90;74.05
34177;BME280;20450;49.074;9.158;2023-04-25T04:58:46;99142.13;;;9.90;74.05
34177;BME280;20450;49.074;9.158;2023-04-25T05:01:34;99141.50;;;9.88;73.77
34177;BME280;20450;49.074;9.158;2023-04-25T05:04:16;99142.56;;;9.87;74.04
34177;BME280;20450;49.074;9.158;2023-04-25T05:07:02;99149.38;;;9.89;73.86
34177;BME280;20450;49.074;9.158;2023-04-25T05:09:50;99144.81;;;9.90;74.16
34177;BME280;20450;49.074;9.158;2023-04-25T05:12:38;99144.38;;;9.93;73.43
34177;BME280;20450;49.074;9.158;2023-04-25T05:15:26;99137.91;;;9.94;74.17
34177;BME280;20450;49.074;9.158;2023-04-25T05:18:18;99136.50;;;9.91;73.93
34177;BME280;20450;49.074;9.158;2023-04-25T05:21:04;99152.41;;;9.99;73.86
34177;BME280;20450;49.074;9.158;2023-04-25T05:23:47;99146.19;;;9.99;73.97
34177;BME280;20450;49.074;9.158;2023-04-25T05:26:43;99142.88;;;9.97;73.77
34177;BME280;20450;49.074;9.158;2023-04-25T05:29:31;99156.34;;;9.97;73.62
34177;BME280;20450;49.074;9.158;2023-04-25T05:32:05;99148.03;;;9.98;74.29
34177;BME280;20450;49.074;9.158;2023-04-25T05:34:33;99153.81;;;10.02;73.79
34177;BME280;20450;49.074;9.158;2023-04-25T05:37:04;99155.88;;;10.07;73.83
34177;BME280;20450;49.074;9.158;2023-04-25T05:39:34;99153.88;;;10.20;78.05
34177;BME280;20450;49.074;9.158;2023-04-25T05:42:26;99154.63;;;10.45;75.02
34177;BME280;20450;49.074;9.158;2023-04-25T05:45:21;99162.25;;;10.66;77.15
34177;BME280;20450;49.074;9.158;2023-04-25T05:48:01;99147.44;;;10.87;77.45
34177;BME280;20450;49.074;9.158;2023-04-25T05:50:56;99156.44;;;10.81;72.72
34177;BME280;20450;49.074;9.158;2023-04-25T05:53:49;99149.16;;;10.99;74.75
34177;BME280;20450;49.074;9.158;2023-04-25T05:56:18;99145.91;;;11.20;72.37
34177;BME280;20450;49.074;9.158;2023-04-25T05:58:51;99137.47;;;11.28;72.27
34177;BME280;20450;49.074;9.158;2023-04-25T06:01:21;99148.75;;;11.37;69.86
34177;BME280;20450;49.074;9.158;2023-04-25T06:03:49;99146.03;;;11.25;68.66
34177;BME280;20450;49.074;9.158;2023-04-25T06:06:17;99150.63;;;11.25;68.47
34177;BME280;20450;49.074;9.158;2023-04-25T06:08:45;99144.63;;;11.23;69.49
34177;BME280;20450;49.074;9.158;2023-04-25T06:11:12;99145.22;;;11.25;69.27
34177;BME280;20450;49.074;9.158;2023-04-25T06:13:40;99150.53;;;11.43;69.13
34177;BME280;20450;49.074;9.158;2023-04-25T06:16:09;99144.75;;;11.80;68.68
34177;BME280;20450;49.074;9.158;2023-04-25T06:18:36;99152.28;;;11.90;67.40
34177;BME280;20450;49.074;9.158;2023-04-25T06:21:04;99152.16;;;11.97;66.92
34177;BME280;20450;49.074;9.158;2023-04-25T06:23:32;99146.97;;;11.95;67.27
34177;BME280;20450;49.074;9.158;2023-04-25T06:26:05;99147.72;;;12.02;66.82
34177;BME280;20450;49.074;9.158;2023-04-25T06:28:37;99140.75;;;11.95;66.42
34177;BME280;20450;49.074;9.158;2023-04-25T06:31:04;99145.34;;;11.94;66.56
34177;BME280;20450;49.074;9.158;2023-04-25T06:33:32;99143.09;;;12.03;66.88
34177;BME280;20450;49.074;9.158;2023-04-25T06:35:59;99144.53;;;12.05;65.58
34177;BME280;20450;49.074;9.158;2023-04-25T06:38:27;99140.75;;;11.95;65.72
34177;BME280;20450;49.074;9.158;2023-04-25T06:40:56;99139.81;;;11.77;66.35
34177;BME280;20450;49.074;9.158;2023-04-25T06:43:24;99142.75;;;11.76;67.31
34177;BME280;20450;49.074;9.158;2023-04-25T06:46:05;99143.34;;;11.78;67.23
34177;BME280;20450;49.074;9.158;2023-04-25T06:48:39;99158.50;;;11.79;66.90
34177;BME280;20450;49.074;9.158;2023-04-25T06:51:06;99149.47;;;11.62;67.34
34177;BME280;20450;49.074;9.158;2023-04-25T06:53:35;99156.47;;;11.51;68.48
34177;BME280;20450;49.074;9.158;2023-04-25T06:56:05;99151.59;;;11.42;68.44
34177;BME280;20450;49.074;9.158;2023-04-25T06:58:52;99148.41;;;11.33;68.69
34177;BME280;20450;49.074;9.158;2023-04-25T07:01:36;99159.19;;;11.22;68.80
34177;BME280;20450;49.074;9.158;2023-04-25T07:04:11;99160.59;;;11.13;69.19
34177;BME280;20450;49.074;9.158;2023-04-25T07:06:43;99158.25;;;11.16;69.46
34177;BME280;20450;49.074;9.158;2023-04-25T07:09:16;99161.53;;;11.18;69.92
34177;BME280;20450;49.074;9.158;2023-04-25T07:11:46;99170.22;;;11.20;69.44
34177;BME280;20450;49.074;9.158;2023-04-25T07:14:12;99164.59;;;11.22;70.34
34177;BME280;20450;49.074;9.158;2023-04-25T07:16:40;99162.72;;;11.22;70.69
34177;BME280;20450;49.074;9.158;2023-04-25T07:19:07;99177.41;;;11.26;69.64
34177;BME280;20450;49.074;9.158;2023-04-25T07:21:36;99174.94;;;11.25;70.71
34177;BME280;20450;49.074;9.158;2023-04-25T07:24:05;99173.91;;;11.26;70.14
34177;BME280;20450;49.074;9.158;2023-04-25T07:26:36;99171.91;;;11.21;68.90
34177;BME280;20450;49.074;9.158;2023-04-25T07:29:15;99184.00;;;11.19;69.56
34177;BME280;20450;49.074;9.158;2023-04-25T07:31:42;99167.25;;;11.10;69.23
34177;BME280;20450;49.074;9.158;2023-04-25T07:34:09;99174.22;;;11.18;69.72
34177;BME280;20450;49.074;9.158;2023-04-25T07:36:39;99178.34;;;11.20;70.06
34177;BME280;20450;49.074;9.158;2023-04-25T07:39:07;99176.63;;;11.26;69.97
34177;BME280;20450;49.074;9.158;2023-04-25T07:41:34;99182.97;;;11.31;70.11
34177;BME280;20450;49.074;9.158;2023-04-25T07:44:01;99184.84;;;11.31;69.84
34177;BME280;20450;49.074;9.158;2023-04-25T07:46:30;99181.66;;;11.22;69.40
34177;BME280;20450;49.074;9.158;2023-04-25T07:48:57;99192.91;;;11.19;69.81
34177;BME280;20450;49.074;9.158;2023-04-25T07:51:24;99185.16;;;11.11;70.44
34177;BME280;20450;49.074;9.158;2023-04-25T07:53:55;99196.66;;;11.07;70.35
34177;BME280;20450;49.074;9.158;2023-04-25T07:56:22;99202.63;;;11.09;70.76
34177;BME280;20450;49.074;9.158;2023-04-25T07:58:51;99198.44;;;11.13;71.32
34177;BME280;20450;49.074;9.158;2023-04-25T08:01:19;99195.22;;;11.04;70.37
34177;BME280;20450;49.074;9.158;2023-04-25T08:03:54;99210.72;;;10.79;71.27
34177;BME280;20450;49.074;9.158;2023-04-25T08:06:29;99198.84;;;10.80;71.29
34177;BME280;20450;49.074;9.158;2023-04-25T08:09:08;99212.09;;;11.00;72.33
34177;BME280;20450;49.074;9.158;2023-04-25T08:11:38;99211.72;;;11.14;70.69
34177;BME280;20450;49.074;9.158;2023-04-25T08:14:08;99211.66;;;11.32;70.76
34177;BME280;20450;49.074;9.158;2023-04-25T08:16:37;99218.13;;;11.31;70.01
34177;BME280;20450;49.074;9.158;2023-04-25T08:19:05;99223.78;;;11.41;69.23
34177;BME280;20450;49.074;9.158;2023-04-25T08:21:34;99221.47;;;11.45;69.78
34177;BME280;20450;49.074;9.158;2023-04-25T08:24:04;99226.41;;;11.48;68.22
34177;BME280;20450;49.074;9.158;2023-04-25T08:26:38;99228.41;;;11.41;68.42
34177;BME280;20450;49.074;9.158;2023-04-25T08:29:06;99237.97;;;11.25;69.02
34177;BME280;20450;49.074;9.158;2023-04-25T08:31:36;99238.56;;;11.27;70.08
34177;BME280;20450;49.074;9.158;2023-04-25T08:34:06;99243.38;;;11.25;69.99
34177;BME280;20450;49.074;9.158;2023-04-25T08:36:49;99240.28;;;11.22;71.03
34177;BME280;20450;49.074;9.158;2023-04-25T08:39:25;99249.47;;;11.21;70.35
34177;BME280;20450;49.074;9.158;2023-04-25T08:42:19;99252.53;;;11.24;70.60
34177;BME280;20450;49.074;9.158;2023-04-25T08:44:49;99264.38;;;11.23;71.24
34177;BME280;20450;49.074;9.158;2023-04-25T08:47:18;99266.06;;;11.24;72.15
34177;BME280;20450;49.074;9.158;2023-04-25T08:49:54;99254.53;;;11.17;72.27
34177;BME280;20450;49.074;9.158;2023-04-25T08:52:22;99265.69;;;11.21;72.30
34177;BME280;20450;49.074;9.158;2023-04-25T08:54:52;99259.44;;;11.20;72.31
34177;BME280;20450;49.074;9.158;2023-04-25T08:57:23;99257.34;;;11.22;72.67
34177;BME280;20450;49.074;9.158;2023-04-25T08:59:51;99264.38;;;11.23;71.09
34177;BME280;20450;49.074;9.158;2023-04-25T09:02:21;99259.13;;;11.28;71.54
34177;BME280;20450;49.074;9.158;2023-04-25T09:04:51;99268.81;;;11.36;71.10
34177;BME280;20450;49.074;9.158;2023-04-25T09:07:23;99276.69;;;11.37;70.68
34177;BME280;20450;49.074;9.158;2023-04-25T09:09:53;99278.34;;;11.38;69.92
34177;BME280;20450;49.074;9.158;2023-04-25T09:12:22;99282.06;;;11.55;70.57
34177;BME280;20450;49.074;9.158;2023-04-25T09:15:04;99278.25;;;11.63;69.99
34177;BME280;20450;49.074;9.158;2023-04-25T09:17:55;99296.28;;;11.80;70.90
34177;BME280;20450;49.074;9.158;2023-04-25T09:20:28;99289.94;;;11.86;69.51
34177;BME280;20450;49.074;9.158;2023-04-25T09:23:02;99290.81;;;11.99;69.16
34177;BME280;20450;49.074;9.158;2023-04-25T09:25:35;99288.94;;;12.11;68.46
34177;BME280;20450;49.074;9.158;2023-04-25T09:28:05;99301.31;;;12.18;67.25
34177;BME280;20450;49.074;9.158;2023-04-25T09:30:34;99305.53;;;12.14;68.08
34177;BME280;20450;49.074;9.158;2023-04-25T09:33:12;99299.88;;;12.16;67.77
34177;BME280;20450;49.074;9.158;2023-04-25T09:35:45;99301.41;;;12.12;68.51
34177;BME280;20450;49.074;9.158;2023-04-25T09:38:20;99306.97;;;12.05;68.65
34177;BME280;20450;49.074;9.158;2023-04-25T09:41:10;99327.84;;;11.86;70.57
34177;BME280;20450;49.074;9.158;2023-04-25T09:43:56;99331.06;;;11.65;69.64
34177;BME280;20450;49.074;9.158;2023-04-25T09:46:33;99332.41;;;11.38;71.46
34177;BME280;20450;49.074;9.158;2023-04-25T09:49:06;99342.06;;;10.98;71.87
34177;BME280;20450;49.074;9.158;2023-04-25T09:51:53;99337.44;;;10.63;73.71
34177;BME280;20450;49.074;9.158;2023-04-25T09:54:21;99339.34;;;10.62;74.32
34177;BME280;20450;49.074;9.158;2023-04-25T09:56:53;99332.25;;;10.61;73.98
34177;BME280;20450;49.074;9.158;2023-04-25T09:59:22;99346.19;;;10.58;74.66
34177;BME280;20450;49.074;9.158;2023-04-25T10:01:50;99349.69;;;10.41;74.95
34177;BME280;20450;49.074;9.158;2023-04-25T10:04:28;99353.81;;;10.43;76.08
34177;BME280;20450;49.074;9.158;2023-04-25T10:07:06;99356.66;;;10.55;75.92
34177;BME280;20450;49.074;9.158;2023-04-25T10:09:38;99353.88;;;10.61;75.33
34177;BME280;20450;49.074;9.158;2023-04-25T10:12:06;99358.38;;;10.67;74.49
34177;BME280;20450;49.074;9.158;2023-04-25T10:14:35;99360.81;;;10.75;73.75
34177;BME280;20450;49.074;9.158;2023-04-25T10:17:03;99367.13;;;10.87;73.50
34177;BME280;20450;49.074;9.158;2023-04-25T10:19:31;99370.41;;;10.89;73.47
34177;BME280;20450;49.074;9.158;2023-04-25T10:22:04;99369.66;;;10.82;73.28
34177;BME280;20450;49.074;9.158;2023-04-25T10:24:35;99374.22;;;10.82;72.28
34177;BME280;20450;49.074;9.158;2023-04-25T10:27:06;99379.84;;;10.80;72.21
34177;BME280;20450;49.074;9.158;2023-04-25T10:29:35;99380.41;;;10.89;73.93
34177;BME280;20450;49.074;9.158;2023-04-25T10:32:02;99381.22;;;10.89;72.76
34177;BME280;20450;49.074;9.158;2023-04-25T10:34:41;99383.94;;;10.89;73.64
34177;BME280;20450;49.074;9.158;2023-04-25T10:37:10;99390.22;;;10.83;72.88
34177;BME280;20450;49.074;9.158;2023-04-25T10:39:39;99385.13;;;10.51;73.82
34177;BME280;20450;49.074;9.158;2023-04-25T10:42:08;99390.81;;;10.43;75.02
34177;BME280;20450;49.074;9.158;2023-04-25T10:44:37;99394.09;;;10.45;75.67
34177;BME280;20450;49.074;9.158;2023-04-25T10:47:07;99389.09;;;10.48;74.87
34177;BME280;20450;49.074;9.158;2023-04-25T10:49:36;99384.91;;;10.28;74.96
34177;BME280;20450;49.074;9.158;2023-04-25T10:52:18;99398.34;;;10.34;76.70
34177;BME280;20450;49.074;9.158;2023-04-25T10:54:52;99397.97;;;10.55;76.51
34177;BME280;20450;49.074;9.158;2023-04-25T10:57:36;99402.34;;;10.74;77.13
34177;BME280;20450;49.074;9.158;2023-04-25T11:00:13;99398.44;;;10.95;76.60
34177;BME280;20450;49.074;9.158;2023-04-25T11:02:43;99395.69;;;11.19;75.12
34177;BME280;20450;49.074;9.158;2023-04-25T11:05:20;99399.13;;;11.44;75.31
34177;BME280;20450;49.074;9.158;2023-04-25T11:07:51;99400.25;;;11.37;73.48
34177;BME280;20450;49.074;9.158;2023-04-25T11:10:25;99396.81;;;11.30;72.62
34177;BME280;20450;49.074;9.158;2023-04-25T11:12:53;99400.13;;;11.32;72.83
34177;BME280;20450;49.074;9.158;2023-04-25T11:15:21;99405.44;;;11.38;72.89
34177;BME280;20450;49.074;9.158;2023-04-25T11:17:51;99403.09;;;11.60;73.17
34177;BME280;20450;49.074;9.158;2023-04-25T11:20:20;99401.38;;;11.83;72.10
34177;BME280;20450;49.074;9.158;2023-04-25T11:22:47;99397.31;;;12.04;71.32
34177;BME280;20450;49.074;9.158;2023-04-25T11:25:17;99400.88;;;12.05;69.81
34177;BME280;20450;49.074;9.158;2023-04-25T11:27:50;99402.69;;;11.93;71.25
34177;BME280;20450;49.074;9.158;2023-04-25T11:30:19;99400.03;;;11.56;73.07
34177;BME280;20450;49.074;9.158;2023-04-25T11:32:48;99405.28;;;11.69;72.45
34177;BME280;20450;49.074;9.158;2023-04-25T11:35:16;99402.72;;;11.74;71.92
34177;BME280;20450;49.074;9.158;2023-04-25T11:37:44;99409.13;;;10.83;75.33
34177;BME280;20450;49.074;9.158;2023-04-25T11:40:11;99413.88;;;10.08;78.15
34177;BME280;20450;49.074;9.158;2023-04-25T11:42:39;99410.50;;;9.81;80.47
34177;BME280;20450;49.074;9.158;2023-04-25T11:45:11;99411.03;;;9.96;78.55
34177;BME280;20450;49.074;9.158;2023-04-25T11:47:41;99420.94;;;10.40;76.99
34177;BME280;20450;49.074;9.158;2023-04-25T11:50:09;99416.38;;;10.65;77.44
34177;BME280;20450;49.074;9.158;2023-04-25T11:52:39;99419.94;;;10.34;77.98
34177;BME280;20450;49.074;9.158;2023-04-25T11:55:08;99414.00;;;10.75;75.93
34177;BME280;20450;49.074;9.158;2023-04-25T11:57:39;99417.59;;;10.93;73.32
34177;BME280;20450;49.074;9.158;2023-04-25T12:00:12;99414.75;;;11.06;72.96
34177;BME280;20450;49.074;9.158;2023-04-25T12:02:47;99415.34;;;11.26;72.36
34177;BME280;20450;49.074;9.158;2023-04-25T12:05:18;99417.47;;;11.42;72.47
34177;BME280;20450;49.074;9.158;2023-04-25T12:08:09;99425.41;;;11.19;75.30
34177;BME280;20450;49.074;9.158;2023-04-25T12:10:37;99421.72;;;10.96;74.90
34177;BME280;20450;49.074;9.158;2023-04-25T12:13:23;99421.31;;;10.92;75.82
34177;BME280;20450;49.074;9.158;2023-04-25T12:15:54;99425.25;;;10.72;75.94
34177;BME280;20450;49.074;9.158;2023-04-25T12:18:25;99428.25;;;10.64;77.60
34177;BME280;20450;49.074;9.158;2023-04-25T12:20:53;99428.56;;;11.16;76.86
34177;BME280;20450;49.074;9.158;2023-04-25T12:23:25;99429.19;;;11.54;74.88
34177;BME280;20450;49.074;9.158;2023-04-25T12:25:52;99430.00;;;11.37;75.64
34177;BME280;20450;49.074;9.158;2023-04-25T12:28:21;99442.13;;;11.70;74.82
34177;BME280;20450;49.074;9.158;2023-04-25T12:30:54;99437.16;;;12.15;73.74
34177;BME280;20450;49.074;9.158;2023-04-25T12:33:22;99430.69;;;12.57;69.54
34177;BME280;20450;49.074;9.158;2023-04-25T12:35:51;99429.88;;;12.80;65.88
34177;BME280;20450;49.074;9.158;2023-04-25T12:38:23;99434.78;;;13.01;66.68
34177;BME280;20450;49.074;9.158;2023-04-25T12:40:51;99433.34;;;12.98;64.85
34177;BME280;20450;49.074;9.158;2023-04-25T12:43:19;99436.44;;;13.02;65.73
34177;BME280;20450;49.074;9.158;2023-04-25T12:45:48;99433.34;;;13.21;65.94
34177;BME280;20450;49.074;9.158;2023-04-25T12:48:15;99441.72;;;13.43;65.07
34177;BME280;20450;49.074;9.158;2023-04-25T12:50:44;99436.63;;;13.35;66.07
34177;BME280;20450;49.074;9.158;2023-04-25T12:53:13;99445.28;;;13.09;66.46
34177;BME280;20450;49.074;9.158;2023-04-25T12:55:42;99444.91;;;13.05;66.92
34177;BME280;20450;49.074;9.158;2023-04-25T12:58:09;99442.41;;;12.92;66.26
34177;BME280;20450;49.074;9.158;2023-04-25T13:00:37;99446.28;;;12.96;63.99
34177;BME280;20450;49.074;9.158;2023-04-25T13:03:08;99454.59;;;13.13;62.80
34177;BME280;20450;49.074;9.158;2023-04-25T13:05:36;99449.16;;;13.24;62.14
34177;BME280;20450;49.074;9.158;2023-04-25T13:08:04;99443.25;;;13.50;62.52
34177;BME280;20450;49.074;9.158;2023-04-25T13:10:33;99444.00;;;13.74;60.90
34177;BME280;20450;49.074;9.158;2023-04-25T13:13:00;99441.00;;;13.87;59.76
34177;BME280;20450;49.074;9.158;2023-04-25T13:15:27;99445.28;;;13.83;58.91
34177;BME280;20450;49.074;9.158;2023-04-25T13:17:55;99447.66;;;13.79;60.13
34177;BME280;20450;49.074;9.158;2023-04-25T13:20:23;99453.78;;;13.75;59.60
34177;BME280;20450;49.074;9.158;2023-04-25T13:22:50;99449.88;;;13.94;59.50
34177;BME280;20450;49.074;9.158;2023-04-25T13:25:17;99453.16;;;13.96;59.00
34177;BME280;20450;49.074;9.158;2023-04-25T13:27:46;99456.53;;;14.03;58.70
34177;BME280;20450;49.074;9.158;2023-04-25T13:33:30;99448.34;;;14.26;57.20
34177;BME280;20450;49.074;9.158;2023-04-25T13:35:57;99454.66;;;14.43;55.90